Time;durP1;ratioP1;P1;durP2;ratioP2;P2;SDS_P1;SDS_P2;PMS_P1;PMS_P2;Temp;Humidity;BMP_temperature;BMP_pressure;BME280_temperature;BME280_humidity;BME280_pressure;Samples;Min_cycle;Max_cycle;Signal;HPM_P1;HPM_P2
2024/01/07 00:01:04;;;;;;;10.38;6.80;;;-0.20;99.90;;;;;;5015142;28;20056;-75
2024/01/07 00:03:31;;;;;;;11.93;7.07;;;-0.20;99.90;;;;;;5014600;28;20788;-72
2024/01/07 00:05:59;;;;;;;10.85;6.72;;;-0.20;99.90;;;;;;5014651;28;20099;-72
2024/01/07 00:08:26;;;;;;;10.10;6.80;;;-0.20;99.90;;;;;;5015059;28;20045;-75
2024/01/07 00:10:53;;;;;;;10.13;6.80;;;-0.20;99.90;;;;;;5031012;28;20053;-75
2024/01/07 00:13:20;;;;;;;10.75;6.50;;;-0.20;99.90;;;;;;5017494;28;20049;-75
2024/01/07 00:15:47;;;;;;;8.02;5.45;;;-0.20;99.90;;;;;;5032293;28;20057;-74
2024/01/07 00:18:14;;;;;;;10.25;5.45;;;-0.20;99.90;;;;;;5013866;28;20056;-72
2024/01/07 00:20:41;;;;;;;10.20;6.10;;;-0.20;99.90;;;;;;5014365;28;20061;-73
2024/01/07 00:23:09;;;;;;;9.77;6.10;;;-0.10;99.90;;;;;;5013781;28;20046;-73
2024/01/07 00:25:36;;;;;;;8.98;6.07;;;-0.10;99.90;;;;;;5014041;28;20052;-73
2024/01/07 00:28:02;;;;;;;10.00;6.28;;;-0.20;99.90;;;;;;5032383;28;20099;-73
2024/01/07 00:30:30;;;;;;;8.82;5.43;;;-0.30;99.90;;;;;;5031634;28;20100;-73
2024/01/07 00:32:57;;;;;;;9.20;5.88;;;-0.20;99.90;;;;;;5030910;28;20130;-73
2024/01/07 00:35:23;;;;;;;11.18;6.13;;;-0.30;99.90;;;;;;5034188;28;20048;-73
2024/01/07 00:37:50;;;;;;;8.70;5.85;;;-0.30;99.90;;;;;;5049785;28;20110;-73
2024/01/07 00:40:19;;;;;;;10.25;6.35;;;-0.30;99.90;;;;;;5050213;28;20052;-73
2024/01/07 00:42:46;;;;;;;9.90;5.80;;;-0.30;99.90;;;;;;5029491;28;20050;-72
2024/01/07 00:45:12;;;;;;;10.20;5.65;;;-0.30;99.90;;;;;;5030347;28;20046;-74
2024/01/07 00:47:39;;;;;;;8.40;5.78;;;-0.30;99.90;;;;;;5031153;28;20057;-73
2024/01/07 00:50:07;;;;;;;10.20;5.85;;;-0.30;99.90;;;;;;5044926;28;20106;-73
2024/01/07 00:52:35;;;;;;;9.40;6.20;;;-0.30;99.90;;;;;;5050206;28;20053;-73
2024/01/07 00:55:03;;;;;;;10.60;5.47;;;-0.30;99.90;;;;;;5050098;28;20480;-73
2024/01/07 00:57:31;;;;;;;11.02;5.65;;;-0.30;99.90;;;;;;5050086;28;20053;-73
2024/01/07 00:59:58;;;;;;;10.80;6.07;;;-0.30;99.90;;;;;;5066232;28;20057;-72
2024/01/07 01:02:25;;;;;;;10.13;5.75;;;-0.30;99.90;;;;;;5049738;28;20045;-73
2024/01/07 01:04:52;;;;;;;12.40;5.30;;;-0.30;99.90;;;;;;5050100;28;20175;-73
2024/01/07 01:07:19;;;;;;;9.10;5.72;;;-0.20;99.90;;;;;;5049131;28;20301;-73
2024/01/07 01:09:45;;;;;;;7.40;4.75;;;-0.20;99.90;;;;;;5050050;28;20091;-73
2024/01/07 01:12:12;;;;;;;9.07;5.57;;;-0.20;99.90;;;;;;5030340;28;20053;-73
2024/01/07 01:14:41;;;;;;;10.48;5.80;;;-0.20;99.90;;;;;;5049350;28;20489;-73
2024/01/07 01:17:08;;;;;;;7.57;4.68;;;-0.20;99.90;;;;;;5049787;28;20459;-73
2024/01/07 01:19:35;;;;;;;9.40;5.93;;;-0.20;99.90;;;;;;5048984;28;20433;-73
2024/01/07 01:22:02;;;;;;;8.25;5.38;;;-0.20;99.90;;;;;;5050326;28;20385;-73
2024/01/07 01:24:29;;;;;;;8.75;5.30;;;-0.20;99.90;;;;;;5048001;28;20098;-73
2024/01/07 01:26:56;;;;;;;8.70;5.32;;;-0.20;99.90;;;;;;5049329;28;20041;-73
2024/01/07 01:29:23;;;;;;;10.38;5.65;;;-0.20;99.90;;;;;;5048139;28;20071;-74
2024/01/07 01:31:51;;;;;;;8.07;5.50;;;-0.20;99.90;;;;;;5049395;28;20045;-73
2024/01/07 01:34:18;;;;;;;11.63;6.45;;;-0.20;99.90;;;;;;5051353;28;20084;-74
2024/01/07 01:36:45;;;;;;;11.60;6.10;;;-0.20;99.90;;;;;;5052671;28;20083;-73
2024/01/07 01:39:12;;;;;;;9.40;4.75;;;-0.20;99.90;;;;;;5053617;28;20106;-73
2024/01/07 01:41:39;;;;;;;9.10;5.47;;;-0.20;99.90;;;;;;5053651;28;20752;-73
2024/01/07 01:44:06;;;;;;;9.48;5.65;;;-0.30;99.90;;;;;;5053582;28;20057;-74
2024/01/07 01:46:33;;;;;;;9.18;5.85;;;0.70;99.90;;;;;;5053208;28;20091;-75
2024/01/07 01:49:02;;;;;;;8.73;5.50;;;-0.30;99.90;;;;;;5052662;28;20063;-74
2024/01/07 01:51:29;;;;;;;7.93;5.78;;;-0.30;99.90;;;;;;5052978;28;20056;-74
2024/01/07 01:53:57;;;;;;;10.35;6.55;;;-0.30;99.90;;;;;;5054005;28;20044;-74
2024/01/07 01:56:28;;;;;;;8.52;5.38;;;-0.30;99.90;;;;;;5052621;28;20505;-74
2024/01/07 01:58:55;;;;;;;11.93;5.63;;;-0.30;99.90;;;;;;5053889;28;20056;-74
2024/01/07 02:01:23;;;;;;;9.50;5.80;;;-0.30;99.90;;;;;;5053254;28;20103;-74
2024/01/07 02:03:51;;;;;;;9.15;5.38;;;-0.30;99.90;;;;;;5052328;28;20115;-74
2024/01/07 02:06:20;;;;;;;11.02;5.93;;;-0.30;99.90;;;;;;5054595;28;20071;-75
2024/01/07 02:08:48;;;;;;;9.45;4.85;;;-0.40;99.90;;;;;;5053322;28;20048;-74
2024/01/07 02:11:19;;;;;;;8.05;5.30;;;-0.30;99.90;;;;;;5052449;28;20049;-74
2024/01/07 02:13:46;;;;;;;7.50;4.30;;;-0.40;99.90;;;;;;5047404;28;20489;-74
2024/01/07 02:16:13;;;;;;;8.90;4.45;;;-0.30;99.90;;;;;;5050197;28;20045;-74
2024/01/07 02:18:42;;;;;;;8.80;5.57;;;-0.40;99.90;;;;;;5051333;28;20060;-74
2024/01/07 02:21:10;;;;;;;6.18;4.22;;;-0.40;99.90;;;;;;5050471;28;20057;-74
2024/01/07 02:23:39;;;;;;;6.03;4.15;;;-0.30;99.90;;;;;;5050511;28;20504;-74
2024/01/07 02:26:07;;;;;;;7.28;4.53;;;0.10;99.90;;;;;;5052424;28;20061;-74
2024/01/07 02:28:35;;;;;;;7.28;4.15;;;-0.30;99.90;;;;;;5053316;28;20462;-75
2024/01/07 02:31:02;;;;;;;6.30;4.10;;;-0.30;99.90;;;;;;5051975;28;20495;-75
2024/01/07 02:33:30;;;;;;;7.18;4.65;;;-0.40;99.90;;;;;;5052868;28;20048;-74
2024/01/07 02:35:57;;;;;;;9.05;4.45;;;-0.40;99.90;;;;;;5052979;28;20045;-74
2024/01/07 02:38:24;;;;;;;8.23;4.20;;;-0.30;99.90;;;;;;5051378;28;20497;-73
2024/01/07 02:40:51;;;;;;;7.75;4.53;;;-0.30;99.90;;;;;;5050382;28;20057;-73
2024/01/07 02:43:19;;;;;;;7.90;4.25;;;-0.30;99.90;;;;;;5052814;28;20110;-74
2024/01/07 02:45:46;;;;;;;7.22;4.38;;;-0.30;99.90;;;;;;5051719;28;20381;-73
2024/01/07 02:48:13;;;;;;;4.65;3.47;;;-0.30;99.90;;;;;;5052784;28;20385;-73
2024/01/07 02:50:40;;;;;;;6.05;4.35;;;-0.30;99.90;;;;;;5052744;28;20057;-74
2024/01/07 02:53:09;;;;;;;7.13;4.63;;;-0.30;99.90;;;;;;5039546;28;20132;-74
2024/01/07 02:55:36;;;;;;;7.32;4.43;;;-0.30;99.90;;;;;;5052240;28;20063;-74
2024/01/07 02:58:03;;;;;;;6.15;3.63;;;-0.30;99.90;;;;;;5051837;28;20053;-73
2024/01/07 03:00:31;;;;;;;7.65;4.13;;;-0.30;99.90;;;;;;5051733;28;20447;-74
2024/01/07 03:02:58;;;;;;;7.07;3.95;;;-0.20;99.90;;;;;;5052267;28;20059;-74
2024/01/07 03:05:27;;;;;;;7.45;4.00;;;-0.30;99.90;;;;;;5052406;28;20056;-74
2024/01/07 03:07:54;;;;;;;7.57;3.60;;;-0.30;99.90;;;;;;5051786;28;20095;-74
2024/01/07 03:10:21;;;;;;;6.35;3.42;;;-0.20;99.90;;;;;;5050356;28;20053;-73
2024/01/07 03:12:48;;;;;;;5.00;3.40;;;-0.20;99.90;;;;;;5052132;28;20559;-73
2024/01/07 03:15:15;;;;;;;7.47;4.10;;;-0.20;99.90;;;;;;5051864;28;20557;-72
2024/01/07 03:17:43;;;;;;;6.60;3.22;;;-0.20;99.90;;;;;;5050092;28;20110;-72
2024/01/07 03:20:11;;;;;;;5.80;3.40;;;-0.30;99.90;;;;;;5053225;28;20041;-73
2024/01/07 03:22:38;;;;;;;7.78;3.45;;;-0.20;99.90;;;;;;5050791;28;20049;-73
2024/01/07 03:25:06;;;;;;;6.22;3.95;;;-0.20;99.90;;;;;;5051561;28;20063;-73
2024/01/07 03:27:33;;;;;;;6.07;3.28;;;-0.20;99.90;;;;;;5050894;28;20647;-74
2024/01/07 03:30:00;;;;;;;5.35;3.20;;;-0.20;99.90;;;;;;5052225;28;20053;-74
2024/01/07 03:32:26;;;;;;;8.00;4.47;;;-0.20;99.90;;;;;;5050934;28;20443;-74
2024/01/07 03:34:55;;;;;;;7.72;3.33;;;-0.30;99.90;;;;;;5049283;28;20102;-74
2024/01/07 03:37:22;;;;;;;5.40;2.72;;;-0.30;99.90;;;;;;5051167;28;20488;-74
2024/01/07 03:39:49;;;;;;;6.28;3.20;;;-0.30;99.90;;;;;;5050962;28;20044;-74
2024/01/07 03:42:16;;;;;;;4.88;3.15;;;-0.30;99.90;;;;;;5051127;28;20504;-75
2024/01/07 03:44:42;;;;;;;5.70;3.63;;;-0.30;99.90;;;;;;5052114;28;20385;-74
2024/01/07 03:47:09;;;;;;;5.90;3.72;;;-0.30;99.90;;;;;;5030770;28;20440;-74
2024/01/07 03:49:37;;;;;;;5.20;3.20;;;-0.30;99.90;;;;;;5050400;28;20053;-74
2024/01/07 03:52:07;;;;;;;6.03;3.13;;;-0.30;99.90;;;;;;5051557;28;20071;-74
2024/01/07 03:54:34;;;;;;;5.75;3.15;;;-0.30;99.90;;;;;;5051673;28;20053;-74
2024/01/07 03:57:01;;;;;;;5.13;3.25;;;-0.30;99.90;;;;;;5050193;28;20049;-73
2024/01/07 03:59:28;;;;;;;4.65;2.95;;;-0.30;99.90;;;;;;5048899;28;20095;-74
2024/01/07 04:01:57;;;;;;;5.38;2.53;;;-0.30;99.90;;;;;;5052504;28;20140;-74
2024/01/07 04:04:24;;;;;;;3.28;2.30;;;-0.30;99.90;;;;;;5051007;28;20049;-73
2024/01/07 04:06:51;;;;;;;4.18;2.50;;;-0.30;99.90;;;;;;5051230;28;20065;-74
2024/01/07 04:09:19;;;;;;;5.15;2.40;;;-0.20;99.90;;;;;;5049399;28;20103;-74
2024/01/07 04:11:46;;;;;;;4.38;3.00;;;-0.30;99.90;;;;;;5050840;28;20464;-75
2024/01/07 04:14:15;;;;;;;6.45;2.92;;;-0.30;99.90;;;;;;5051300;28;20049;-75
2024/01/07 04:16:42;;;;;;;4.65;2.50;;;-0.30;99.90;;;;;;5049446;28;20045;-75
2024/01/07 04:19:09;;;;;;;7.18;3.25;;;-0.10;99.90;;;;;;5051314;28;20045;-75
2024/01/07 04:21:36;;;;;;;4.47;3.25;;;-0.20;99.90;;;;;;5051223;28;20488;-75
2024/01/07 04:24:03;;;;;;;4.03;3.00;;;-0.30;99.90;;;;;;5050107;28;20127;-76
2024/01/07 04:26:31;;;;;;;5.10;2.65;;;-0.30;99.90;;;;;;5048831;28;20045;-75
2024/01/07 04:28:58;;;;;;;5.65;3.10;;;-0.30;99.90;;;;;;5050947;28;20419;-75
2024/01/07 04:31:25;;;;;;;5.88;2.60;;;-0.30;99.90;;;;;;5049681;28;20559;-75
2024/01/07 04:33:52;;;;;;;4.07;2.60;;;0.10;99.90;;;;;;5050382;28;20084;-74
2024/01/07 04:36:18;;;;;;;5.38;3.78;;;-0.30;99.90;;;;;;5049715;28;20045;-76
2024/01/07 04:38:45;;;;;;;6.45;2.67;;;-0.30;99.90;;;;;;5048920;28;20110;-75
2024/01/07 04:41:12;;;;;;;6.35;2.60;;;-0.30;99.90;;;;;;5050464;28;20048;-75
2024/01/07 04:43:41;;;;;;;4.63;3.03;;;-0.30;99.90;;;;;;5048628;28;20099;-76
2024/01/07 04:46:10;;;;;;;8.38;3.65;;;-0.30;99.90;;;;;;5050378;28;20080;-75
2024/01/07 04:48:37;;;;;;;4.85;2.53;;;-0.30;99.90;;;;;;5052744;28;20049;-75
2024/01/07 04:51:05;;;;;;;4.55;2.70;;;-0.30;99.90;;;;;;5050305;28;20480;-75
2024/01/07 04:53:32;;;;;;;4.93;2.45;;;-0.30;99.90;;;;;;5052841;28;20056;-75
2024/01/07 04:55:59;;;;;;;5.63;2.50;;;-0.30;99.90;;;;;;5052457;28;20454;-75
2024/01/07 04:58:26;;;;;;;6.63;2.38;;;-0.30;99.90;;;;;;5050327;28;20732;-75
2024/01/07 05:00:54;;;;;;;3.78;2.00;;;-0.30;99.90;;;;;;5051560;28;20056;-75
2024/01/07 05:03:21;;;;;;;4.97;2.30;;;-0.30;99.90;;;;;;5050287;28;20458;-75
2024/01/07 05:05:48;;;;;;;3.97;2.05;;;-0.30;99.90;;;;;;5050808;28;20063;-75
2024/01/07 05:08:14;;;;;;;3.60;1.98;;;-0.30;99.90;;;;;;5048133;28;20036;-75
2024/01/07 05:10:41;;;;;;;4.05;2.20;;;-0.30;99.90;;;;;;5045641;28;20049;-74
2024/01/07 05:13:08;;;;;;;4.53;1.90;;;-0.30;99.90;;;;;;5057948;28;20063;-74
2024/01/07 05:15:36;;;;;;;3.47;1.80;;;-0.30;99.90;;;;;;5057120;28;20053;-74
2024/01/07 05:18:08;;;;;;;3.78;2.53;;;-0.30;99.90;;;;;;5057881;28;20048;-74
2024/01/07 05:20:35;;;;;;;4.72;2.17;;;-0.30;99.90;;;;;;5058215;28;20056;-74
2024/01/07 05:23:02;;;;;;;3.17;2.15;;;-0.30;99.90;;;;;;5059277;28;20052;-74
2024/01/07 05:25:29;;;;;;;4.68;1.77;;;-0.30;99.90;;;;;;5060045;28;20373;-74
2024/01/07 05:27:55;;;;;;;4.50;1.80;;;-0.30;99.90;;;;;;5057181;28;20388;-74
2024/01/07 05:30:23;;;;;;;3.72;2.08;;;-0.30;99.90;;;;;;5057294;28;20057;-74
2024/01/07 05:32:50;;;;;;;3.85;2.60;;;-0.30;99.90;;;;;;5058504;28;20487;-74
2024/01/07 05:35:18;;;;;;;3.50;1.90;;;-0.30;99.90;;;;;;5056342;28;20492;-74
2024/01/07 05:37:45;;;;;;;6.15;2.00;;;-0.30;99.90;;;;;;5058091;28;20048;-73
2024/01/07 05:40:12;;;;;;;5.18;1.73;;;-0.30;99.90;;;;;;5077759;28;20049;-74
2024/01/07 05:42:39;;;;;;;3.53;1.75;;;-0.30;99.90;;;;;;5056751;28;20496;-75
2024/01/07 05:45:06;;;;;;;4.72;1.98;;;-0.20;99.90;;;;;;5058442;28;20051;-75
2024/01/07 05:47:33;;;;;;;4.40;1.88;;;-0.30;99.90;;;;;;5059763;28;20462;-74
2024/01/07 05:50:01;;;;;;;5.00;1.58;;;-0.30;99.90;;;;;;5046514;28;20057;-74
2024/01/07 05:52:30;;;;;;;3.72;2.17;;;-0.20;99.90;;;;;;5058901;28;20549;-74
2024/01/07 05:54:57;;;;;;;4.25;1.85;;;-0.20;99.90;;;;;;5056568;28;20056;-75
2024/01/07 05:57:24;;;;;;;5.28;1.90;;;-0.20;99.90;;;;;;5057450;28;20114;-74
2024/01/07 05:59:51;;;;;;;2.88;1.85;;;-0.20;99.90;;;;;;5057125;28;20130;-75
2024/01/07 06:02:18;;;;;;;4.47;2.08;;;-0.20;99.90;;;;;;5057463;28;20496;-74
2024/01/07 06:04:45;;;;;;;3.30;1.88;;;-0.20;99.90;;;;;;5056737;28;20381;-75
2024/01/07 06:07:12;;;;;;;3.78;1.63;;;-0.20;99.90;;;;;;5057850;28;20404;-75
2024/01/07 06:09:40;;;;;;;4.47;1.80;;;-0.20;99.90;;;;;;5054862;28;20570;-75
2024/01/07 06:12:07;;;;;;;2.60;1.42;;;-0.20;99.90;;;;;;5057552;28;20109;-75
2024/01/07 06:14:34;;;;;;;2.55;1.33;;;-0.20;99.90;;;;;;5058723;28;20504;-75
2024/01/07 06:17:01;;;;;;;3.97;1.60;;;-0.10;99.90;;;;;;5056845;28;20458;-75
2024/01/07 06:19:28;;;;;;;4.32;2.22;;;-0.20;99.90;;;;;;5058005;28;20576;-74
2024/01/07 06:21:55;;;;;;;2.63;1.67;;;-0.20;99.90;;;;;;5052211;28;20733;-74
2024/01/07 06:24:22;;;;;;;3.15;1.77;;;-0.20;99.90;;;;;;5053891;28;20083;-74
2024/01/07 06:26:50;;;;;;;2.65;1.75;;;-0.20;99.90;;;;;;5053259;28;20045;-74
2024/01/07 06:29:18;;;;;;;2.90;1.63;;;-0.20;99.90;;;;;;5054068;28;20386;-74
2024/01/07 06:31:46;;;;;;;3.40;1.90;;;-0.10;99.90;;;;;;5063617;28;20049;-74
2024/01/07 06:34:13;;;;;;;3.05;1.67;;;0.10;99.90;;;;;;5052996;28;20585;-74
2024/01/07 06:36:41;;;;;;;3.40;1.80;;;0.30;99.90;;;;;;5053182;28;20131;-75
2024/01/07 06:39:08;;;;;;;3.28;2.00;;;-0.10;99.90;;;;;;5052385;28;20060;-75
2024/01/07 06:41:35;;;;;;;2.15;1.35;;;-0.10;99.90;;;;;;5054147;28;20565;-74
2024/01/07 06:44:03;;;;;;;3.22;1.67;;;-0.10;99.90;;;;;;5055990;28;20048;-74
2024/01/07 06:46:30;;;;;;;2.90;1.67;;;-0.10;99.90;;;;;;5052289;28;20094;-74
2024/01/07 06:48:57;;;;;;;2.95;1.48;;;-0.10;99.90;;;;;;5051902;28;20103;-75
2024/01/07 06:51:24;;;;;;;2.97;1.60;;;0.30;99.90;;;;;;5051669;28;20103;-75
2024/01/07 06:53:51;;;;;;;2.72;1.52;;;-0.20;99.90;;;;;;5051870;28;20582;-74
2024/01/07 06:56:18;;;;;;;3.50;1.75;;;-0.20;99.90;;;;;;5052177;28;20497;-75
2024/01/07 06:58:45;;;;;;;4.85;1.70;;;-0.20;99.90;;;;;;5052461;28;20439;-74
2024/01/07 07:01:13;;;;;;;3.53;1.60;;;-0.20;99.90;;;;;;5032620;28;20045;-74
2024/01/07 07:03:41;;;;;;;2.83;1.58;;;-0.30;99.90;;;;;;5052066;28;20500;-74
2024/01/07 07:06:08;;;;;;;2.47;1.60;;;-0.20;99.90;;;;;;5051931;28;20076;-75
2024/01/07 07:08:35;;;;;;;5.32;1.60;;;-0.20;99.90;;;;;;5051921;28;20094;-75
2024/01/07 07:11:03;;;;;;;5.90;1.60;;;-0.30;99.90;;;;;;5052181;28;20250;-76
2024/01/07 07:13:30;;;;;;;4.80;1.90;;;-0.30;99.90;;;;;;5013694;28;20049;-75
2024/01/07 07:15:56;;;;;;;4.03;1.80;;;-0.30;99.90;;;;;;5016650;28;20127;-75
2024/01/07 07:18:25;;;;;;;2.88;1.40;;;-0.30;99.90;;;;;;5015542;28;20053;-75
2024/01/07 07:20:52;;;;;;;2.20;1.40;;;-0.40;99.90;;;;;;5015330;28;20111;-75
2024/01/07 07:23:19;;;;;;;4.88;1.70;;;-0.40;99.90;;;;;;5016174;28;20041;-75
2024/01/07 07:25:46;;;;;;;3.70;1.48;;;-0.50;99.90;;;;;;5032523;28;20099;-75
2024/01/07 07:28:13;;;;;;;3.10;1.70;;;-0.50;99.90;;;;;;5031442;28;20041;-74
2024/01/07 07:30:39;;;;;;;2.85;1.77;;;-0.60;99.90;;;;;;5017214;28;20471;-74
2024/01/07 07:33:06;;;;;;;2.95;1.40;;;-0.60;99.90;;;;;;5015546;28;20433;-75
2024/01/07 07:35:35;;;;;;;2.30;1.20;;;-0.30;99.90;;;;;;5014747;28;20049;-75
2024/01/07 07:38:01;;;;;;;3.70;1.40;;;-0.30;99.90;;;;;;5033378;28;20433;-75
2024/01/07 07:40:28;;;;;;;3.90;1.40;;;-0.70;99.90;;;;;;5030633;28;20091;-75
2024/01/07 07:42:55;;;;;;;3.17;1.52;;;-0.80;99.90;;;;;;5012837;28;20123;-75
2024/01/07 07:45:22;;;;;;;3.03;1.60;;;-0.90;99.90;;;;;;5015354;28;20049;-74
2024/01/07 07:47:49;;;;;;;2.30;1.58;;;-0.90;99.90;;;;;;5014705;28;20095;-74
2024/01/07 07:50:16;;;;;;;3.10;1.63;;;-0.90;99.90;;;;;;5012072;28;20058;-75
2024/01/07 07:52:45;;;;;;;4.22;1.80;;;-1.00;99.90;;;;;;5020813;28;20132;-74
2024/01/07 07:55:12;;;;;;;2.90;1.83;;;-1.00;99.90;;;;;;5027653;28;20468;-74
2024/01/07 07:57:39;;;;;;;2.80;1.75;;;-1.00;99.90;;;;;;5017493;28;20045;-75
2024/01/07 08:00:11;;;;;;;4.07;1.88;;;-0.80;99.90;;;;;;5028344;28;20107;-74
2024/01/07 08:02:38;;;;;;;4.03;1.70;;;-0.80;99.90;;;;;;5029487;28;20488;-74
2024/01/07 08:05:05;;;;;;;5.35;1.80;;;-0.80;99.90;;;;;;5028396;28;20468;-73
2024/01/07 08:07:32;;;;;;;9.43;2.40;;;-0.20;99.90;;;;;;5027874;28;20077;-74
2024/01/07 08:10:00;;;;;;;5.35;2.22;;;-0.40;99.90;;;;;;5026689;28;20103;-76
2024/01/07 08:12:27;;;;;;;2.47;1.77;;;-0.50;99.90;;;;;;5027514;28;20505;-74
2024/01/07 08:14:54;;;;;;;4.03;2.10;;;-0.50;99.90;;;;;;5029537;28;20049;-74
2024/01/07 08:17:21;;;;;;;3.28;1.88;;;-0.50;99.90;;;;;;5027976;28;20095;-75
2024/01/07 08:19:48;;;;;;;3.13;1.45;;;-0.50;99.90;;;;;;5025312;28;20057;-74
2024/01/07 08:22:15;;;;;;;3.25;1.83;;;0.10;99.90;;;;;;5028756;28;20558;-74
2024/01/07 08:24:42;;;;;;;3.33;1.80;;;0.30;99.90;;;;;;5023681;28;20057;-75
2024/01/07 08:27:10;;;;;;;3.15;1.60;;;0.10;99.90;;;;;;5029755;28;20504;-75
2024/01/07 08:29:37;;;;;;;4.20;2.10;;;-0.20;99.90;;;;;;5030929;28;20104;-75
2024/01/07 08:32:04;;;;;;;2.90;1.50;;;-0.10;99.90;;;;;;5029455;28;20049;-74
2024/01/07 08:34:31;;;;;;;2.80;1.75;;;-0.10;99.90;;;;;;5025893;28;20050;-74
2024/01/07 08:36:58;;;;;;;3.47;1.95;;;-0.20;99.90;;;;;;5029988;28;20103;-74
2024/01/07 08:39:28;;;;;;;2.90;1.45;;;-0.20;99.90;;;;;;5024890;28;20057;-74
2024/01/07 08:41:55;;;;;;;3.53;1.35;;;0.00;99.90;;;;;;5027924;28;20408;-74
2024/01/07 08:44:23;;;;;;;2.83;1.50;;;-0.10;99.90;;;;;;5019276;28;20471;-74
2024/01/07 08:46:50;;;;;;;3.97;1.50;;;-0.10;99.90;;;;;;5026796;28;20143;-75
2024/01/07 08:49:17;;;;;;;3.72;1.88;;;-0.10;99.90;;;;;;5037807;28;20099;-75
2024/01/07 08:51:44;;;;;;;2.83;1.50;;;-0.10;99.90;;;;;;5034689;28;20057;-75
2024/01/07 08:54:11;;;;;;;2.17;1.45;;;0.20;99.90;;;;;;5047788;28;20049;-74
2024/01/07 08:56:39;;;;;;;2.50;1.40;;;0.00;99.90;;;;;;5034937;28;20444;-74
2024/01/07 08:59:06;;;;;;;3.15;1.73;;;0.00;99.90;;;;;;5041862;28;20100;-75
2024/01/07 09:01:34;;;;;;;2.40;1.70;;;0.00;99.90;;;;;;5035648;28;20064;-74
2024/01/07 09:04:01;;;;;;;2.88;1.58;;;0.10;99.90;;;;;;5043418;28;20051;-75
2024/01/07 09:06:28;;;;;;;3.25;1.40;;;0.10;99.90;;;;;;5047356;28;20053;-74
2024/01/07 09:08:55;;;;;;;2.58;1.60;;;0.10;99.90;;;;;;5043334;28;20099;-74
2024/01/07 09:11:22;;;;;;;4.45;1.83;;;0.10;99.90;;;;;;5033556;28;20095;-74
2024/01/07 09:13:50;;;;;;;4.13;2.00;;;0.10;99.90;;;;;;5043275;28;20061;-74
2024/01/07 09:16:17;;;;;;;2.80;1.33;;;0.10;99.90;;;;;;5035405;28;20068;-75
2024/01/07 09:18:45;;;;;;;4.25;1.70;;;0.20;99.90;;;;;;5040737;28;20045;-76
2024/01/07 09:21:12;;;;;;;3.00;1.52;;;0.50;99.90;;;;;;5034167;28;20094;-74
2024/01/07 09:23:39;;;;;;;3.13;1.73;;;0.40;99.90;;;;;;5032636;28;20060;-74
2024/01/07 09:26:06;;;;;;;5.18;1.55;;;0.30;99.90;;;;;;5032102;28;20041;-74
2024/01/07 09:28:33;;;;;;;5.32;1.83;;;0.30;99.90;;;;;;5032307;28;20045;-74
2024/01/07 09:31:00;;;;;;;6.28;1.80;;;0.30;99.90;;;;;;5029507;28;20048;-75
2024/01/07 09:33:27;;;;;;;4.72;1.80;;;0.40;99.90;;;;;;5040123;28;20099;-74
2024/01/07 09:35:55;;;;;;;2.40;1.35;;;0.30;99.90;;;;;;5033090;28;20440;-75
2024/01/07 09:38:22;;;;;;;2.95;1.63;;;0.30;99.90;;;;;;5040372;28;20045;-74
2024/01/07 09:40:49;;;;;;;3.35;2.10;;;0.40;99.90;;;;;;5032598;28;20053;-74
2024/01/07 09:43:16;;;;;;;2.85;1.70;;;0.40;99.90;;;;;;5040385;28;20443;-75
2024/01/07 09:45:47;;;;;;;4.82;2.15;;;0.40;99.90;;;;;;5045477;28;20107;-74
2024/01/07 09:48:15;;;;;;;2.60;1.55;;;0.40;99.90;;;;;;5036704;28;20087;-74
2024/01/07 09:50:42;;;;;;;3.00;1.52;;;0.60;99.90;;;;;;5032353;28;20107;-74
2024/01/07 09:53:15;;;;;;;2.90;1.90;;;0.70;99.90;;;;;;5030090;28;20037;-75
2024/01/07 09:55:53;;;;;;;3.55;2.10;;;0.50;99.90;;;;;;5029991;28;20480;-74
2024/01/07 09:58:20;;;;;;;3.35;1.90;;;0.60;99.90;;;;;;5036148;28;20095;-75
2024/01/07 10:00:47;;;;;;;5.53;1.95;;;0.50;99.90;;;;;;5034241;28;20506;-76
2024/01/07 10:03:14;;;;;;;3.05;2.00;;;0.60;99.90;;;;;;5033320;28;20057;-76
2024/01/07 10:05:42;;;;;;;4.57;2.00;;;0.60;99.90;;;;;;5032546;28;20513;-76
2024/01/07 10:08:10;;;;;;;2.67;1.70;;;0.60;99.90;;;;;;5033604;28;20536;-76
2024/01/07 10:10:40;;;;;;;3.45;2.05;;;0.60;99.90;;;;;;5033389;28;20052;-73
2024/01/07 10:13:08;;;;;;;3.95;1.50;;;0.70;99.90;;;;;;5051076;28;20049;-75
2024/01/07 10:15:35;;;;;;;4.32;2.03;;;0.70;99.90;;;;;;5032430;28;20076;-75
2024/01/07 10:18:05;;;;;;;4.70;1.63;;;0.80;99.90;;;;;;5033284;28;20048;-74
2024/01/07 10:20:33;;;;;;;3.67;1.60;;;0.80;99.90;;;;;;5031557;28;20500;-74
2024/01/07 10:23:00;;;;;;;3.67;1.77;;;0.80;99.90;;;;;;5032713;28;20379;-73
2024/01/07 10:25:28;;;;;;;2.53;1.67;;;1.00;99.90;;;;;;5033357;28;20057;-75
2024/01/07 10:27:59;;;;;;;2.40;1.65;;;1.00;99.90;;;;;;5032811;28;20079;-75
2024/01/07 10:30:26;;;;;;;;;;;1.10;99.90;;;;;;5033054;28;20045;-73
2024/01/07 10:32:57;;;;;;;5.40;1.70;;;1.60;99.90;;;;;;5032151;28;19921;-73
2024/01/07 10:35:28;;;;;;;6.18;2.65;;;1.70;99.90;;;;;;5033000;28;20087;-74
2024/01/07 10:37:56;;;;;;;4.13;1.85;;;1.70;99.90;;;;;;5032108;28;20042;-75
2024/01/07 10:40:23;;;;;;;3.15;1.77;;;1.70;99.90;;;;;;5032012;28;20041;-74
2024/01/07 10:42:53;;;;;;;3.35;1.65;;;1.70;99.90;;;;;;5033839;28;20488;-74
2024/01/07 10:45:20;;;;;;;3.33;1.67;;;1.80;99.90;;;;;;5032210;28;20061;-74
2024/01/07 10:47:50;;;;;;;5.07;1.95;;;2.00;99.90;;;;;;5026262;28;20050;-75
2024/01/07 10:50:18;;;;;;;3.10;1.70;;;2.00;99.90;;;;;;5035102;28;20641;-74
2024/01/07 10:52:50;;;;;;;2.78;1.65;;;2.00;99.90;;;;;;5042486;28;20107;-74
2024/01/07 10:55:20;;;;;;;3.15;1.85;;;2.50;99.90;;;;;;5032530;28;20099;-73
2024/01/07 10:57:49;;;;;;;3.45;1.90;;;2.80;99.90;;;;;;5037015;28;20059;-74
2024/01/07 11:00:19;;;;;;;4.10;1.90;;;2.70;99.90;;;;;;5032798;28;20057;-74
2024/01/07 11:03:09;;;;;;;3.17;1.67;;;2.80;99.90;;;;;;5032738;28;20092;-75
2024/01/07 11:05:44;;;;;;;3.70;1.83;;;3.00;99.90;;;;;;5059209;28;20045;-73
2024/01/07 11:08:20;;;;;;;3.58;2.10;;;3.10;99.90;;;;;;5037719;28;20382;-74
2024/01/07 11:10:51;;;;;;;3.42;1.67;;;3.90;99.90;;;;;;5030382;28;20080;-74
2024/01/07 11:13:34;;;;;;;3.67;1.83;;;4.60;99.90;;;;;;5031770;28;20144;-75
2024/01/07 11:16:03;;;;;;;3.85;1.85;;;6.30;99.90;;;;;;5030870;28;20489;-74
2024/01/07 11:18:33;;;;;;;5.03;2.42;;;7.30;99.90;;;;;;5038337;28;20052;-75
2024/01/07 11:21:02;;;;;;;3.92;2.03;;;7.20;99.90;;;;;;5036162;28;20059;-75
2024/01/07 11:23:30;;;;;;;2.92;1.85;;;6.60;99.90;;;;;;5032677;28;20081;-75
2024/01/07 11:25:58;;;;;;;3.28;2.00;;;6.20;99.90;;;;;;5034817;28;20471;-74
2024/01/07 11:28:49;;;;;;;4.97;2.60;;;6.10;99.90;;;;;;5032042;28;20076;-74
2024/01/07 11:31:18;;;;;;;4.90;2.35;;;5.70;99.90;;;;;;5032588;28;20045;-74
2024/01/07 11:33:46;;;;;;;3.70;2.28;;;5.30;99.90;;;;;;5031398;28;20057;-74
2024/01/07 11:36:14;;;;;;;4.03;2.10;;;5.60;99.90;;;;;;5032356;28;20405;-74
2024/01/07 11:38:45;;;;;;;3.90;2.30;;;6.60;99.90;;;;;;5031968;28;20095;-75
2024/01/07 11:41:14;;;;;;;3.67;2.30;;;7.60;99.90;;;;;;5039502;28;20488;-74
2024/01/07 11:43:54;;;;;;;5.28;2.60;;;8.30;99.90;;;;;;5043873;28;20115;-74
2024/01/07 11:46:22;;;;;;;5.82;2.83;;;8.80;99.90;;;;;;5049746;28;20095;-74
2024/01/07 11:48:49;;;;;;;3.55;2.53;;;9.10;99.40;;;;;;5031024;28;20049;-74
2024/01/07 11:51:17;;;;;;;4.78;2.58;;;9.60;99.50;;;;;;5012847;28;20046;-74
2024/01/07 11:53:48;;;;;;;4.78;2.20;;;9.30;98.40;;;;;;5015939;28;20103;-74
2024/01/07 11:56:15;;;;;;;5.20;2.15;;;9.60;99.40;;;;;;5013059;28;20124;-75
2024/01/07 11:58:42;;;;;;;4.63;2.67;;;9.80;98.20;;;;;;5020443;28;20045;-75
2024/01/07 12:01:09;;;;;;;6.68;2.70;;;9.20;97.80;;;;;;5013594;28;20074;-76
2024/01/07 12:03:37;;;;;;;4.78;2.58;;;8.80;98.90;;;;;;5019915;28;20054;-76
2024/01/07 12:06:05;;;;;;;5.60;2.50;;;8.40;99.80;;;;;;5015410;28;20053;-74
2024/01/07 12:08:32;;;;;;;5.00;2.47;;;8.30;99.90;;;;;;5019085;28;20049;-75
2024/01/07 12:11:00;;;;;;;4.10;2.70;;;8.20;99.90;;;;;;5019714;28;20054;-75
2024/01/07 12:13:27;;;;;;;5.25;2.70;;;8.50;99.90;;;;;;5012727;28;20053;-75
2024/01/07 12:15:54;;;;;;;3.97;2.40;;;8.50;99.90;;;;;;5018154;28;20074;-74
2024/01/07 12:18:22;;;;;;;6.22;2.53;;;8.70;99.40;;;;;;5022786;28;20053;-75
2024/01/07 12:20:58;;;;;;;6.32;2.92;;;8.60;99.90;;;;;;5020133;28;20091;-76
2024/01/07 12:23:25;;;;;;;3.63;2.53;;;9.30;99.10;;;;;;5029923;28;20104;-75
2024/01/07 12:25:52;;;;;;;5.53;2.97;;;8.60;99.90;;;;;;5048209;28;20060;-75
2024/01/07 12:28:19;;;;;;;3.78;2.50;;;8.30;99.90;;;;;;5028107;28;20049;-75
2024/01/07 12:30:48;;;;;;;4.13;2.40;;;8.20;99.90;;;;;;5029239;28;20041;-75
2024/01/07 12:33:18;;;;;;;4.55;2.55;;;8.30;99.90;;;;;;5031546;28;20048;-75
2024/01/07 12:35:46;;;;;;;4.78;2.40;;;8.20;99.70;;;;;;5028074;28;20107;-74
2024/01/07 12:38:14;;;;;;;4.18;2.60;;;8.70;99.90;;;;;;5032820;28;20068;-74
2024/01/07 12:40:41;;;;;;;5.18;2.70;;;9.10;99.60;;;;;;5021025;28;21191;-74
2024/01/07 12:43:08;;;;;;;5.15;2.70;;;9.60;99.40;;;;;;5021965;28;20045;-74
2024/01/07 12:45:35;;;;;;;3.65;2.13;;;9.90;98.90;;;;;;5032437;28;20057;-75
2024/01/07 12:48:02;;;;;;;4.38;2.63;;;9.50;97.90;;;;;;5028323;28;21017;-74
2024/01/07 12:50:30;;;;;;;5.30;2.42;;;9.40;98.20;;;;;;5033920;28;20052;-74
2024/01/07 12:52:57;;;;;;;7.07;2.80;;;9.30;98.30;;;;;;5049582;28;20048;-75